Pagrindinis puslapis
METAR-TAF:

METAR-TAF

Oro uostai :

Venas, Mikronezija

platuma: 07-28N, ilguma: 151-51E, Aukštis: 3 m

Dabartinis oras

Ataskaita buvo paskelbta 24 minutes, ne 05:52 UTC
Vėjas 10 kt iš Šiaurės Rytų
Temperatūra 30°C
Drėgmė 79%
Slėgis 1007 hPa
Matomumas: 24.1 km
Mažai debesys ne aukštis 1400 ft
Su prošvaistėmis ne aukštis 28000 ft

METAR: PTKK 120552Z 04010KT 15SM FEW014 BKN280 30/26 A2973 RMK SLP071 60001 8/101 T03030263 10309 20300 56008

Laikas: 16:16 (06:16 UTC)

Prognozė

Ataskaita buvo paskelbta 37 minutes, ne 05:39 UTC
Prognozė galioja nuo 12 metu 06 UTC su 13 metu 06 UTC
Vėjas 15 kt iš Šiaurės Rytų
Matomumas: 10 km
Išsisklaidę debesys ne aukštis 1500 ft
Išsisklaidę debesys ne aukštis 5000 ft
Nuo 12 metu 1800 UTC
Vėjas 15 kt iš Rytų/Šiaurės Rytų
Matomumas: 10 km
Išsisklaidę debesys ne aukštis 1500 ft
Išsisklaidę debesys ne aukštis 5000 ft
Liūtis kaimynystėje

TAF: PTKK 120539Z 1206/1306 05015KT P6SM SCT015 SCT050 FM121800 06015KT P6SM VCSH SCT015 SCT050

Orai ataskaitas ir orų prognozės (METAR, TAF).

turimą stotys yra geltonos ir raudonos taškus žemėlapyje.

Perkelti pele per norėdami pamatyti stoties vardą.

Tada spustelėkite, norėdami matyti oro stebėjimo ir prognozės.

Norėdami pakeisti žemėlapį: spustelėkite ant žalios mygtukų su juodo kryžiaus žemyn,; žalią mygtuką su brūkšneliu, jei norite nutolinti; arba žalių rodyklių gretimoms žemėlapius.


METAR-TAF: